Time;durP1;ratioP1;P1;durP2;ratioP2;P2;SDS_P1;SDS_P2;PMS_P1;PMS_P2;Temp;Humidity;BMP_temperature;BMP_pressure;BME280_temperature;BME280_humidity;BME280_pressure;Samples;Min_cycle;Max_cycle;Signal;HPM_P1;HPM_P2
2024/03/12 00:00:21;;;;;;;13.20;7.60;;;;;;;4.57;72.52;99118.00;105213;1267;72240;-26
2024/03/12 00:02:50;;;;;;;9.50;5.20;;;;;;;4.79;72.40;99116.60;105196;1263;74343;-26
2024/03/12 00:13:01;;;;;;;9.20;5.40;;;;;;;4.65;72.59;99112.19;102666;1291;600248;-23
2024/03/12 00:15:31;;;;;;;10.40;5.50;;;;;;;4.85;72.32;99108.69;104850;1269;61108;-24
2024/03/12 00:18:04;;;;;;;7.20;5.40;;;;;;;5.23;70.98;99113.80;104777;1271;61121;-24
2024/03/12 00:20:35;;;;;;;10.60;6.70;;;;;;;5.18;70.53;99109.09;104776;1267;71318;-23
2024/03/12 00:23:06;;;;;;;9.30;4.80;;;;;;;4.83;71.41;99101.08;104778;1269;74342;-24
2024/03/12 00:25:34;;;;;;;17.50;4.40;;;;;;;4.60;72.70;99099.77;104574;1268;303133;-25
2024/03/12 00:28:01;;;;;;;10.10;5.40;;;;;;;4.73;72.75;99100.10;104709;1273;61078;-24
2024/03/12 00:30:30;;;;;;;6.10;4.40;;;;;;;5.06;71.47;99096.67;105059;1268;61172;-24
2024/03/12 00:32:59;;;;;;;8.00;5.50;;;;;;;5.08;71.23;99096.36;104819;1266;72224;-25
2024/03/12 00:35:32;;;;;;;8.60;4.70;;;;;;;4.78;72.03;99089.81;104877;1266;74402;-26
2024/03/12 00:38:04;;;;;;;7.90;4.50;;;;;;;4.52;73.00;99082.67;104831;1266;72690;-26
2024/03/12 00:40:33;;;;;;;10.30;5.50;;;;;;;4.68;73.14;99077.15;104841;1266;61146;-27
2024/03/12 00:43:06;;;;;;;9.90;6.00;;;;;;;4.98;71.93;99079.94;104862;1266;61219;-26
2024/03/12 00:45:38;;;;;;;;;;;;;;;4.89;72.12;99077.48;104852;1270;72859;-26
2024/03/12 00:48:12;;;;;;;11.10;4.50;;;;;;;4.70;72.72;99075.85;104890;1268;74361;-26
2024/03/12 00:50:42;;;;;;;8.80;4.50;;;;;;;4.44;74.03;99067.66;104837;1266;72668;-26
2024/03/12 00:53:11;;;;;;;6.80;4.10;;;;;;;4.96;72.39;99068.31;104899;1266;61199;-26
2024/03/12 00:55:40;;;;;;;3.70;2.80;;;;;;;5.00;71.85;99069.48;104869;1267;61140;-26
2024/03/12 00:58:12;;;;;;;6.60;4.00;;;;;;;4.90;72.20;99054.77;104893;1265;73025;-26
2024/03/12 01:00:40;;;;;;;5.90;3.50;;;;;;;4.63;73.00;99063.14;105088;1265;74435;-26
2024/03/12 01:03:08;;;;;;;9.20;5.10;;;;;;;4.84;73.00;99066.93;104802;1271;72713;-26
2024/03/12 01:05:37;;;;;;;6.40;3.90;;;;;;;5.03;72.12;99070.83;105019;1266;61124;-26
2024/03/12 01:08:07;;;;;;;5.40;2.80;;;;;;;4.95;72.08;99069.41;104884;1270;61238;-26
2024/03/12 01:10:35;;;;;;;6.00;3.80;;;;;;;4.79;72.62;99067.92;104875;1264;73065;-26
2024/03/12 01:13:09;;;;;;;9.20;4.80;;;;;;;4.59;73.62;99062.54;104849;1266;74354;-26
2024/03/12 01:15:39;;;;;;;6.70;4.30;;;;;;;4.93;72.26;99054.41;104936;1268;72694;-26
2024/03/12 01:25:47;;;;;;;4.90;3.20;;;;;;;4.68;73.35;99053.25;102655;1294;599337;-23
2024/03/12 01:28:14;;;;;;;6.10;3.70;;;;;;;5.06;71.51;99049.36;104887;1267;61180;-25
2024/03/12 01:30:42;;;;;;;8.00;5.10;;;;;;;4.98;71.52;99047.08;104823;1270;61219;-26
2024/03/12 01:40:51;;;;;;;9.40;5.60;;;;;;;4.98;71.49;99035.55;102733;1293;599502;-24
2024/03/12 01:43:19;;;;;;;7.60;4.50;;;;;;;4.92;71.41;99043.28;105019;1269;61416;-24
2024/03/12 01:45:46;;;;;;;8.80;5.80;;;;;;;4.65;72.07;99034.86;104934;1267;61170;-24
2024/03/12 01:55:53;;;;;;;15.20;8.60;;;;;;;4.96;71.61;99027.39;102662;1292;600361;-24
2024/03/12 01:58:21;;;;;;;9.00;5.20;;;;;;;4.60;72.37;99021.52;104987;1269;61336;-24
2024/03/12 02:00:48;;;;;;;6.60;4.50;;;;;;;4.44;73.45;99027.77;104820;1271;61266;-24
2024/03/12 02:03:18;;;;;;;12.60;5.70;;;;;;;4.80;72.23;99026.39;104912;1270;72280;-24
2024/03/12 02:05:46;;;;;;;7.10;4.00;;;;;;;4.99;71.35;99020.13;104871;1270;73520;-25
2024/03/12 02:08:15;;;;;;;6.80;4.50;;;;;;;4.82;71.46;99017.17;104810;1271;71440;-24
2024/03/12 02:10:43;;;;;;;8.20;4.50;;;;;;;4.59;72.27;99022.24;105009;1269;222073;-25
2024/03/12 02:13:10;;;;;;;6.90;4.20;;;;;;;4.67;72.46;99019.61;105180;1266;61112;-26
2024/03/12 02:23:43;;;;;;;9.30;5.60;;;;;;;4.40;72.99;99012.33;102746;1293;599044;-23
2024/03/12 02:26:10;;;;;;;6.20;4.30;;;;;;;4.67;72.05;99010.81;104701;1272;61157;-25
2024/03/12 02:28:38;;;;;;;9.10;4.80;;;;;;;4.77;71.68;99005.45;104840;1267;61053;-25
2024/03/12 02:31:06;;;;;;;10.50;5.40;;;;;;;4.36;72.79;99004.45;104887;1267;71515;-25
2024/03/12 02:33:34;;;;;;;5.00;3.40;;;;;;;4.07;74.21;99003.84;105494;1260;74267;-25
2024/03/12 02:41:10;;;;;;;7.00;4.70;;;;;;;4.39;73.19;98994.33;102678;1292;600083;-23
2024/03/12 02:51:18;;;;;;;14.60;7.40;;;;;;;4.71;72.36;98989.47;102755;1290;599083;-23
2024/03/12 02:53:45;;;;;;;10.20;5.70;;;;;;;4.37;72.81;98977.41;105026;1265;61227;-24
2024/03/12 02:56:13;;;;;;;6.50;4.30;;;;;;;4.04;74.20;98988.37;104830;1264;61164;-24
2024/03/12 02:58:41;;;;;;;8.50;3.80;;;;;;;4.26;74.35;98983.39;105040;1264;72297;-24
2024/03/12 03:01:08;;;;;;;11.20;5.20;;;;;;;4.65;72.83;98978.77;104843;1270;74464;-25
2024/03/12 03:03:36;;;;;;;4.40;3.50;;;;;;;4.52;72.68;98980.05;105047;1263;72620;-25
2024/03/12 03:06:06;;;;;;;9.20;6.20;;;;;;;4.24;73.57;98973.90;104920;1268;295235;-24
2024/03/12 03:08:33;;;;;;;9.30;5.90;;;;;;;3.95;74.72;98979.08;105227;1263;61126;-25
2024/03/12 03:17:21;;;;;;;9.30;6.60;;;;;;;4.14;74.02;98980.44;102673;1295;600167;-23
2024/03/12 03:19:49;;;;;;;12.80;6.90;;;;;;;3.80;75.34;98976.65;105499;1262;61324;-24
2024/03/12 03:22:16;;;;;;;11.10;6.00;;;;;;;3.99;75.01;98974.89;105400;1262;61122;-24
2024/03/12 03:24:44;;;;;;;11.10;6.60;;;;;;;4.35;73.62;98974.83;105436;1257;72217;-24
2024/03/12 03:27:11;;;;;;;6.50;4.80;;;;;;;4.23;73.56;98972.22;105242;1258;74266;-24
2024/03/12 03:29:39;;;;;;;7.40;5.30;;;;;;;4.08;74.19;98972.34;105386;1264;72673;-24
2024/03/12 03:32:08;;;;;;;9.90;5.80;;;;;;;3.76;75.40;98966.77;105316;1262;226272;-26
2024/03/12 03:34:37;;;;;;;9.70;7.50;;;;;;;3.99;75.09;98972.84;105585;1260;60991;-27
2024/03/12 03:44:50;;;;;;;8.70;5.60;;;;;;;4.01;75.14;98975.50;102728;1292;600131;-26
2024/03/12 03:47:17;;;;;;;10.80;6.60;;;;;;;4.34;73.70;98976.09;104787;1272;61210;-27
2024/03/12 03:49:47;;;;;;;11.40;5.80;;;;;;;4.41;72.97;98977.89;104857;1263;61161;-27
2024/03/12 03:52:15;;;;;;;4.10;3.10;;;;;;;4.26;73.25;98976.48;104883;1270;72225;-27
2024/03/12 03:54:43;;;;;;;7.70;5.70;;;;;;;4.03;73.99;98979.48;104904;1264;74264;-27
2024/03/12 03:57:11;;;;;;;7.90;5.00;;;;;;;4.02;74.40;98972.84;104885;1271;72802;-27
2024/03/12 04:07:20;;;;;;;9.90;4.50;;;;;;;3.71;74.83;98972.46;102877;1290;599457;-24
2024/03/12 04:09:47;;;;;;;7.10;4.10;;;;;;;3.71;75.52;98968.70;104854;1273;61174;-24
2024/03/12 04:12:15;;;;;;;15.80;6.10;;;;;;;4.06;74.12;98971.61;104847;1264;61031;-24
2024/03/12 04:14:42;;;;;;;16.50;6.60;;;;;;;3.91;74.12;98969.01;104905;1269;72173;-24
2024/03/12 04:17:10;;;;;;;11.90;6.70;;;;;;;3.65;74.73;98961.45;104871;1267;74285;-24
2024/03/12 04:19:37;;;;;;;11.40;6.20;;;;;;;3.54;75.80;98971.52;105413;1263;71689;-25
2024/03/12 04:22:05;;;;;;;9.80;5.90;;;;;;;3.91;74.58;98972.27;105430;1258;250491;-26
2024/03/12 04:24:33;;;;;;;7.60;4.60;;;;;;;4.05;73.60;98974.73;105625;1260;61249;-26
2024/03/12 04:27:01;;;;;;;19.30;10.00;;;;;;;3.83;74.35;98973.06;105636;1258;72227;-26
2024/03/12 04:35:58;;;;;;;8.10;4.70;;;;;;;3.91;74.37;98969.35;102665;1292;600163;-24
2024/03/12 04:38:25;;;;;;;4.60;3.60;;;;;;;3.72;74.60;98971.41;104816;1269;62693;-24
2024/03/12 04:40:53;;;;;;;10.80;7.20;;;;;;;3.44;75.53;98971.55;104881;1266;61077;-24
2024/03/12 04:51:01;;;;;;;7.80;5.70;;;;;;;3.57;75.05;98972.88;102727;1292;599009;-24
2024/03/12 04:53:28;;;;;;;4.80;3.90;;;;;;;3.13;76.59;98972.59;105020;1265;61147;-24
2024/03/12 05:02:16;;;;;;;6.40;3.80;;;;;;;3.60;74.53;98974.24;102714;1292;600012;-24
2024/03/12 05:10:55;;;;;;;4.40;3.70;;;;;;;3.71;74.42;98971.30;102757;1290;599833;-25
2024/03/12 05:21:01;;;;;;;3.30;2.70;;;;;;;3.72;74.39;98974.02;102698;1293;600794;-24
2024/03/12 05:23:29;;;;;;;12.50;6.10;;;;;;;3.52;74.54;98976.56;104841;1267;61175;-25
2024/03/12 05:25:58;;;;;;;8.40;5.60;;;;;;;3.26;75.39;98978.79;104883;1270;61202;-25
2024/03/12 05:28:26;;;;;;;5.60;4.20;;;;;;;3.01;76.43;98978.75;105060;1269;72236;-24
2024/03/12 05:30:54;;;;;;;7.30;5.00;;;;;;;3.23;76.09;98968.82;104843;1264;74311;-24
2024/03/12 05:33:28;;;;;;;6.80;4.00;;;;;;;3.43;75.20;98977.95;104844;1264;71476;-25
2024/03/12 05:49:14;;;;;;;7.70;5.70;;;;;;;2.85;77.01;98978.69;104832;1264;61204;-24
2024/03/12 05:51:43;;;;;;;4.70;2.90;;;;;;;3.10;76.61;98977.39;104909;1266;72244;-25
2024/03/12 05:54:11;;;;;;;9.60;4.80;;;;;;;3.31;75.53;98979.24;104785;1269;74298;-24
2024/03/12 05:56:39;;;;;;;7.80;4.70;;;;;;;3.24;75.60;98980.82;104661;1268;210027;-24
2024/03/12 05:59:07;;;;;;;6.50;4.40;;;;;;;2.98;76.41;98984.33;104994;1266;61154;-25
2024/03/12 06:01:35;;;;;;;6.60;4.40;;;;;;;3.04;76.87;98981.80;104902;1268;61177;-25
2024/03/12 06:04:04;;;;;;;7.50;5.10;;;;;;;3.47;75.40;98980.98;105130;1263;72287;-24
2024/03/12 06:06:32;;;;;;;12.60;6.40;;;;;;;3.49;74.69;98981.90;104925;1263;73093;-25
2024/03/12 06:16:47;;;;;;;8.50;5.20;;;;;;;3.57;75.30;98980.27;102755;1289;598665;-24
2024/03/12 06:19:14;;;;;;;11.00;5.60;;;;;;;3.43;75.46;98980.34;105117;1265;60999;-24
2024/03/12 06:21:42;;;;;;;7.00;5.20;;;;;;;3.17;76.27;98978.90;105059;1266;61135;-24
2024/03/12 06:31:43;;;;;;;5.40;4.00;;;;;;;3.49;75.15;98969.54;102700;1290;600041;-23
2024/03/12 06:34:10;;;;;;;4.90;3.80;;;;;;;3.24;76.09;98969.14;104861;1264;61148;-23
2024/03/12 06:36:39;;;;;;;8.10;5.90;;;;;;;3.50;75.67;98971.55;104895;1263;61061;-23
2024/03/12 06:39:07;;;;;;;10.30;6.50;;;;;;;3.65;75.04;98969.55;104954;1264;72258;-23
2024/03/12 06:41:35;;;;;;;5.60;3.40;;;;;;;3.55;74.97;98966.99;108625;1263;74325;-24
2024/03/12 06:44:07;;;;;;;6.80;5.50;;;;;;;3.36;75.49;98969.02;108720;1263;71450;-24
2024/03/12 06:46:35;;;;;;;6.00;3.80;;;;;;;3.27;76.51;98968.13;108569;1260;61150;-24
2024/03/12 06:49:04;;;;;;;6.70;4.70;;;;;;;3.63;75.23;98966.05;108854;1260;60206;-24
2024/03/12 06:51:32;;;;;;;4.10;3.10;;;;;;;3.64;74.81;98967.19;108862;1260;72198;-24
2024/03/12 06:53:59;;;;;;;5.90;3.90;;;;;;;3.51;75.23;98969.09;108909;1260;73203;-25
2024/03/12 06:56:28;;;;;;;10.10;4.70;;;;;;;3.29;75.94;98969.05;108890;1260;71375;-24
2024/03/12 06:58:56;;;;;;;3.20;2.80;;;;;;;3.50;75.80;98964.49;108880;1262;61463;-24
2024/03/12 07:01:27;;;;;;;5.00;3.40;;;;;;;3.86;74.29;98964.64;108917;1262;58869;-24
2024/03/12 07:03:57;;;;;;;8.20;3.50;;;;;;;3.76;74.30;98969.30;108917;1264;75292;-25
2024/03/12 07:06:24;;;;;;;5.60;4.00;;;;;;;3.58;74.73;98971.13;108854;1260;73540;-24
2024/03/12 07:09:01;;;;;;;4.10;3.40;;;;;;;3.27;75.96;98965.89;108895;1260;74644;-24
2024/03/12 07:11:29;;;;;;;5.30;3.50;;;;;;;3.55;75.57;98965.80;108895;1260;60425;-24
2024/03/12 07:14:02;;;;;;;5.40;4.30;;;;;;;3.81;74.35;98976.25;108921;1260;59847;-24
2024/03/12 07:16:30;;;;;;;6.70;3.40;;;;;;;3.73;74.30;98972.73;108910;1260;73046;-24
2024/03/12 07:18:58;;;;;;;7.30;4.70;;;;;;;3.34;75.78;98970.85;108896;1260;74438;-24
2024/03/12 07:21:26;;;;;;;5.40;4.60;;;;;;;3.42;76.20;98970.07;108891;1260;70870;-24
2024/03/12 07:23:54;;;;;;;5.70;3.70;;;;;;;3.72;75.09;98969.34;108881;1262;59849;-24
2024/03/12 07:26:22;;;;;;;4.60;3.40;;;;;;;3.64;74.98;98966.86;108988;1260;59789;-24
2024/03/12 07:28:49;;;;;;;4.10;3.10;;;;;;;3.50;75.48;98976.68;108919;1260;72397;-24
2024/03/12 07:31:16;;;;;;;9.30;5.60;;;;;;;3.45;76.48;98974.05;108897;1260;75940;-24
2024/03/12 07:33:44;;;;;;;3.60;2.60;;;;;;;3.80;75.07;98971.84;108781;1260;72680;-24
2024/03/12 07:36:12;;;;;;;4.40;2.90;;;;;;;3.89;74.46;98974.45;108956;1260;59855;-24
2024/03/12 07:38:41;;;;;;;7.60;5.20;;;;;;;3.74;74.89;98975.77;108929;1260;62229;-24
2024/03/12 07:41:09;;;;;;;3.90;2.90;;;;;;;3.54;76.14;98972.19;108695;1261;73026;-24
2024/03/12 07:43:37;;;;;;;3.20;2.20;;;;;;;3.86;75.24;98975.28;108890;1260;76453;-24
2024/03/12 07:46:05;;;;;;;4.40;3.40;;;;;;;4.11;74.20;98969.30;108773;1260;74356;-24
2024/03/12 07:48:32;;;;;;;6.40;3.30;;;;;;;3.95;74.39;98966.87;108888;1260;60281;-24
2024/03/12 07:51:00;;;;;;;2.90;2.50;;;;;;;3.72;75.24;98966.78;108873;1261;59542;-24
2024/03/12 07:53:29;;;;;;;2.00;1.60;;;;;;;3.61;76.04;98968.91;108896;1260;70906;-24
2024/03/12 07:56:00;;;;;;;3.80;3.20;;;;;;;3.93;75.20;98969.22;108796;1260;75946;-25
2024/03/12 07:58:28;;;;;;;7.80;5.70;;;;;;;4.13;74.34;98974.00;108846;1260;74078;-24
2024/03/12 08:00:56;;;;;;;4.60;1.70;;;;;;;4.00;74.49;98970.55;108938;1260;59866;-24
2024/03/12 08:03:23;;;;;;;3.20;2.60;;;;;;;3.86;74.77;98969.79;108910;1259;60349;-24
2024/03/12 08:05:52;;;;;;;4.60;2.70;;;;;;;4.02;75.08;98974.09;108950;1260;74970;-25
2024/03/12 08:08:19;;;;;;;6.40;4.90;;;;;;;4.43;73.40;98971.64;108982;1259;74906;-25
2024/03/12 08:10:47;;;;;;;3.60;2.50;;;;;;;4.40;72.93;98971.77;108888;1259;73009;-25
2024/03/12 08:13:14;;;;;;;2.50;2.20;;;;;;;4.04;74.06;98971.17;108946;1260;58925;-25
2024/03/12 08:15:42;;;;;;;2.90;1.60;;;;;;;3.93;74.73;98969.23;109004;1260;61544;-25
2024/03/12 08:18:10;;;;;;;4.00;3.00;;;;;;;4.03;75.29;98969.87;109003;1259;73744;-25
2024/03/12 08:20:47;;;;;;;4.60;3.10;;;;;;;4.45;73.75;98969.23;109039;1259;73091;-25
2024/03/12 08:23:15;;;;;;;4.50;3.80;;;;;;;4.51;73.40;98967.37;108962;1259;71746;-25
2024/03/12 08:25:43;;;;;;;3.00;2.50;;;;;;;4.22;74.13;98965.02;108962;1259;59547;-25
2024/03/12 08:28:25;;;;;;;3.80;2.70;;;;;;;3.87;75.58;98960.10;108964;1259;59795;-25
2024/03/12 08:30:53;;;;;;;4.40;3.60;;;;;;;4.24;75.42;98963.75;108979;1259;75053;-25
2024/03/12 08:33:25;;;;;;;3.20;2.80;;;;;;;4.49;73.97;98968.16;108999;1260;75406;-25
2024/03/12 08:35:53;;;;;;;3.30;2.60;;;;;;;4.49;74.01;98965.27;108913;1260;74108;-25
2024/03/12 08:38:23;;;;;;;3.50;2.20;;;;;;;4.24;74.46;98970.95;109001;1259;58827;-25
2024/03/12 08:40:52;;;;;;;3.60;2.60;;;;;;;3.92;75.95;98965.66;108999;1260;62294;-25
2024/03/12 08:43:19;;;;;;;6.30;3.60;;;;;;;4.21;75.63;98970.25;109009;1260;72619;-25
2024/03/12 08:45:47;;;;;;;4.40;3.10;;;;;;;4.50;74.25;98959.67;109005;1259;74210;-25
2024/03/12 08:48:16;;;;;;;4.60;3.30;;;;;;;4.56;74.07;98965.71;108914;1260;74223;-25
2024/03/12 08:50:45;;;;;;;10.90;4.60;;;;;;;4.25;74.81;98963.34;108918;1260;60249;-25
2024/03/12 08:53:12;;;;;;;8.10;4.90;;;;;;;4.13;75.97;98965.89;109602;1251;58613;-25
2024/03/12 08:55:42;;;;;;;5.70;3.70;;;;;;;4.51;74.49;98957.02;109600;1251;73966;-25
2024/03/12 08:58:09;;;;;;;5.70;4.60;;;;;;;4.55;74.05;98951.86;109532;1251;74660;-25
2024/03/12 09:00:37;;;;;;;6.90;3.00;;;;;;;4.34;74.76;98951.84;109587;1251;72438;-25
2024/03/12 09:03:05;;;;;;;3.60;3.10;;;;;;;4.08;75.76;98952.41;109420;1252;60165;-25
2024/03/12 09:05:36;;;;;;;6.10;4.40;;;;;;;4.14;75.94;98953.30;109601;1251;62210;-25
2024/03/12 09:08:04;;;;;;;4.80;3.80;;;;;;;4.29;75.19;98950.73;109602;1251;73015;-25
2024/03/12 09:10:33;;;;;;;4.20;3.50;;;;;;;4.26;75.16;98953.66;109579;1251;74190;-25
2024/03/12 09:13:01;;;;;;;5.50;4.20;;;;;;;4.10;75.81;98950.41;109545;1253;73021;-25
2024/03/12 09:15:29;;;;;;;4.50;3.50;;;;;;;4.16;76.18;98947.34;109602;1252;58736;-25
2024/03/12 09:17:57;;;;;;;7.30;5.20;;;;;;;4.42;75.33;98938.48;109591;1253;58663;-25
2024/03/12 09:20:24;;;;;;;6.40;3.60;;;;;;;4.42;75.11;98932.48;109617;1253;75323;-25
2024/03/12 09:22:54;;;;;;;4.80;3.90;;;;;;;4.15;75.85;98939.84;109597;1253;74660;-25
2024/03/12 09:25:23;;;;;;;6.30;4.40;;;;;;;4.11;76.86;98939.20;109599;1253;73595;-26
2024/03/12 09:27:50;;;;;;;5.80;4.40;;;;;;;4.58;75.05;98945.30;109580;1253;60016;-25
2024/03/12 09:30:18;;;;;;;5.20;3.50;;;;;;;4.66;74.66;98946.77;109587;1253;62237;-25
2024/03/12 09:32:45;;;;;;;7.40;4.20;;;;;;;4.60;74.62;98952.21;109567;1252;73985;-25
2024/03/12 09:35:13;;;;;;;8.30;6.20;;;;;;;4.43;75.38;98953.54;109618;1252;76741;-25
2024/03/12 09:37:40;;;;;;;7.50;5.20;;;;;;;4.73;75.05;98960.58;109585;1252;72536;-25
2024/03/12 09:40:11;;;;;;;9.30;5.50;;;;;;;4.85;74.47;98959.57;109438;1253;58737;-25
2024/03/12 09:42:40;;;;;;;4.60;3.80;;;;;;;4.76;74.47;98958.01;109521;1251;62153;-25
2024/03/12 09:45:08;;;;;;;7.40;5.10;;;;;;;4.62;74.94;98957.80;109249;1260;72623;-25
2024/03/12 09:47:36;;;;;;;5.20;4.20;;;;;;;4.51;75.61;98959.43;109472;1251;74365;-25
2024/03/12 09:50:10;;;;;;;7.50;5.90;;;;;;;4.92;74.41;98951.25;109446;1253;71688;-25
2024/03/12 09:52:41;;;;;;;4.80;4.40;;;;;;;4.97;73.75;98949.54;109410;1253;61863;-25
2024/03/12 09:55:13;;;;;;;7.20;4.50;;;;;;;5.02;73.51;98956.50;109405;1252;60345;-24
2024/03/12 09:57:46;;;;;;;8.90;5.60;;;;;;;4.62;74.51;98954.85;109440;1257;74931;-25
2024/03/12 10:00:22;;;;;;;9.70;6.00;;;;;;;4.72;75.08;98955.82;109623;1253;73651;-25
2024/03/12 10:02:50;;;;;;;8.80;5.10;;;;;;;4.89;73.90;98951.73;109493;1252;72447;-25
2024/03/12 10:05:21;;;;;;;7.20;4.90;;;;;;;4.95;73.88;98956.23;109549;1253;59895;-25
2024/03/12 10:08:12;;;;;;;6.10;4.50;;;;;;;4.69;74.38;98956.02;109524;1252;58838;-25
2024/03/12 10:10:41;;;;;;;10.80;4.50;;;;;;;4.45;75.38;98961.88;109307;1252;72050;-25
2024/03/12 10:13:14;;;;;;;10.10;5.70;;;;;;;4.70;74.98;98953.87;109406;1253;75591;-25
2024/03/12 10:15:47;;;;;;;6.60;4.30;;;;;;;4.90;73.82;98957.05;109286;1253;74025;-24
2024/03/12 10:18:16;;;;;;;9.30;5.80;;;;;;;4.81;74.03;98956.84;109145;1253;61426;-24
2024/03/12 10:20:47;;;;;;;10.70;6.60;;;;;;;4.63;74.47;98955.50;109460;1252;61018;-24
2024/03/12 10:23:16;;;;;;;9.40;6.60;;;;;;;4.57;75.47;98961.87;109327;1253;71700;-24
2024/03/12 10:25:48;;;;;;;7.80;5.20;;;;;;;4.97;74.03;98956.59;109183;1252;74287;-24
2024/03/12 10:28:19;;;;;;;11.00;6.30;;;;;;;5.01;73.55;98955.02;109279;1253;73635;-24
2024/03/12 10:30:46;;;;;;;9.20;5.40;;;;;;;4.85;73.92;98959.04;109141;1253;59521;-24
2024/03/12 10:33:20;;;;;;;14.10;7.70;;;;;;;4.67;74.89;98958.89;109463;1253;60948;-24
2024/03/12 10:35:50;;;;;;;7.20;4.80;;;;;;;4.75;74.95;98963.91;109405;1253;74960;-24
2024/03/12 10:38:25;;;;;;;10.90;6.90;;;;;;;5.05;73.65;98951.00;109315;1253;75904;-25
2024/03/12 10:40:56;;;;;;;13.60;7.60;;;;;;;4.90;73.94;98956.17;109432;1253;74922;-24
2024/03/12 10:43:24;;;;;;;8.30;4.70;;;;;;;4.73;74.36;98958.39;109428;1253;59609;-24
2024/03/12 10:45:53;;;;;;;8.40;6.30;;;;;;;4.54;75.62;98953.11;109419;1253;58992;-24
2024/03/12 10:48:21;;;;;;;12.10;6.20;;;;;;;4.84;74.64;98944.98;109300;1253;75431;-24
2024/03/12 10:50:49;;;;;;;7.30;4.10;;;;;;;4.93;74.14;98948.79;109235;1253;76615;-25
2024/03/12 10:53:17;;;;;;;9.80;5.40;;;;;;;4.89;74.22;98940.76;109366;1252;72718;-24
2024/03/12 10:55:45;;;;;;;7.90;6.30;;;;;;;4.57;75.17;98938.11;109251;1254;60797;-25
2024/03/12 10:58:14;;;;;;;8.40;5.80;;;;;;;4.49;76.18;98939.63;109223;1252;61732;-25
2024/03/12 11:00:41;;;;;;;7.50;4.20;;;;;;;4.85;74.83;98936.34;109314;1253;73693;-25
2024/03/12 11:03:09;;;;;;;8.20;4.90;;;;;;;5.03;74.19;98933.55;109419;1253;74190;-25
2024/03/12 11:05:38;;;;;;;13.90;6.80;;;;;;;4.89;74.56;98935.59;109420;1253;72516;-25
2024/03/12 11:08:09;;;;;;;9.00;5.90;;;;;;;4.68;75.39;98939.04;109477;1253;59209;-25
2024/03/12 11:10:37;;;;;;;5.40;4.40;;;;;;;4.83;75.36;98940.77;109165;1253;59221;-25
2024/03/12 11:13:05;;;;;;;9.10;6.70;;;;;;;4.98;74.63;98938.52;109326;1254;75192;-25
2024/03/12 11:15:35;;;;;;;12.20;7.60;;;;;;;4.86;74.71;98929.36;109463;1254;73032;-25
2024/03/12 11:18:05;;;;;;;8.90;6.30;;;;;;;4.77;75.45;98940.28;109328;1254;74807;-25
2024/03/12 11:20:33;;;;;;;10.70;6.60;;;;;;;4.65;76.58;98940.80;109414;1253;63229;-25
2024/03/12 11:55:55;;;;;;;19.20;10.60;;;;;;;2.80;90.65;98919.87;103705;1277;613974;-26
2024/03/12 11:58:51;;;;;;;14.50;9.50;;;;;;;4.54;81.75;98922.66;104854;1278;61177;-25
2024/03/12 12:01:22;;;;;;;10.90;7.20;;;;;;;5.07;77.44;98919.74;104774;1267;61071;-25
2024/03/12 12:03:59;;;;;;;12.10;7.00;;;;;;;4.82;77.41;98915.20;104803;1271;73600;-25
2024/03/12 12:06:27;;;;;;;9.00;5.30;;;;;;;4.65;77.97;98916.52;104869;1267;75604;-25
2024/03/12 12:08:54;;;;;;;8.10;5.70;;;;;;;4.74;77.87;98920.77;104903;1264;250062;-25
2024/03/12 12:11:28;;;;;;;11.70;7.00;;;;;;;5.15;76.25;98916.14;105167;1264;61069;-25
2024/03/12 12:13:57;;;;;;;6.90;5.30;;;;;;;5.09;75.23;98915.46;105085;1270;61228;-24
2024/03/12 12:16:27;;;;;;;7.50;5.00;;;;;;;4.99;75.60;98917.13;104824;1269;70990;-25
2024/03/12 12:19:06;;;;;;;10.60;5.20;;;;;;;4.82;76.00;98913.14;105038;1264;74276;-25
2024/03/12 12:21:34;;;;;;;14.30;9.40;;;;;;;5.03;75.65;98907.75;104899;1263;72155;-25
2024/03/12 12:24:01;;;;;;;8.40;6.60;;;;;;;5.09;74.42;98904.10;105050;1263;61024;-25
2024/03/12 12:26:33;;;;;;;8.50;6.70;;;;;;;4.91;74.99;98907.92;105084;1269;61186;-25
2024/03/12 12:29:00;;;;;;;5.60;4.00;;;;;;;4.67;75.57;98902.85;105162;1264;72679;-25
2024/03/12 12:31:28;;;;;;;7.60;5.30;;;;;;;4.34;76.84;98900.10;105208;1263;74514;-25
2024/03/12 12:33:58;;;;;;;8.30;5.00;;;;;;;4.56;76.46;98904.70;105090;1267;72539;-24
2024/03/12 12:36:27;;;;;;;10.10;5.30;;;;;;;4.77;75.76;98906.89;104853;1264;61191;-25
2024/03/12 12:38:54;;;;;;;8.60;5.20;;;;;;;4.75;75.65;98904.91;105132;1269;61702;-25
2024/03/12 12:41:42;;;;;;;7.70;5.40;;;;;;;4.63;75.85;98905.46;105849;1251;74398;-25
2024/03/12 12:44:15;;;;;;;6.40;4.10;;;;;;;4.29;76.85;98900.40;105901;1252;73344;-25
2024/03/12 12:46:45;;;;;;;7.20;5.00;;;;;;;4.58;75.84;98910.77;105773;1251;71321;-25
2024/03/12 12:49:13;;;;;;;7.50;4.90;;;;;;;4.63;75.16;98906.20;105860;1251;61952;-25
2024/03/12 12:51:41;;;;;;;7.50;4.30;;;;;;;4.45;75.48;98905.67;105746;1257;61216;-26
2024/03/12 12:54:09;;;;;;;11.20;6.00;;;;;;;4.25;76.11;98904.23;105895;1256;72355;-25
2024/03/12 12:56:43;;;;;;;10.60;6.60;;;;;;;4.24;76.71;98898.27;105912;1250;73775;-25
2024/03/12 12:59:10;;;;;;;7.70;5.70;;;;;;;4.58;75.30;98907.81;105917;1251;71426;-25
2024/03/12 13:01:37;;;;;;;10.30;6.10;;;;;;;4.52;75.00;98903.72;105756;1251;61141;-25
2024/03/12 13:04:24;;;;;;;7.90;5.60;;;;;;;4.20;76.06;98902.61;105975;1254;61364;-25
2024/03/12 13:06:53;;;;;;;9.10;6.70;;;;;;;3.97;76.81;98899.42;105906;1257;72754;-25
2024/03/12 13:09:28;;;;;;;12.70;9.20;;;;;;;4.34;76.08;98904.91;105760;1260;72289;-25
2024/03/12 13:11:57;;;;;;;13.60;7.90;;;;;;;4.42;75.02;98900.48;105866;1251;71877;-25
2024/03/12 13:14:25;;;;;;;9.20;5.90;;;;;;;4.22;75.32;98903.54;105748;1251;61102;-25
2024/03/12 13:16:53;;;;;;;9.90;6.30;;;;;;;3.91;76.33;98907.85;105867;1254;61159;-26
2024/03/12 13:19:20;;;;;;;10.70;7.10;;;;;;;3.97;76.92;98899.95;105815;1251;72891;-25
2024/03/12 13:21:48;;;;;;;11.90;8.00;;;;;;;4.30;75.16;98898.92;105754;1251;75178;-25
2024/03/12 13:24:15;;;;;;;7.10;5.70;;;;;;;4.29;74.41;98895.74;105683;1257;72342;-25
2024/03/12 13:26:42;;;;;;;11.90;7.80;;;;;;;4.13;74.51;98903.54;105805;1251;61169;-25
2024/03/12 13:29:10;;;;;;;8.60;5.10;;;;;;;3.88;75.46;98904.08;105839;1252;61157;-26
2024/03/12 13:31:37;;;;;;;7.10;5.80;;;;;;;4.11;75.07;98901.38;105962;1257;72060;-25
2024/03/12 13:34:05;;;;;;;10.60;6.10;;;;;;;4.31;73.91;98898.58;105824;1251;73253;-26
2024/03/12 13:36:33;;;;;;;8.20;5.00;;;;;;;4.21;73.66;98896.23;105800;1253;72605;-25
2024/03/12 13:39:02;;;;;;;8.50;5.20;;;;;;;4.04;73.90;98899.73;105554;1253;61195;-25
2024/03/12 13:41:29;;;;;;;11.80;7.60;;;;;;;3.69;75.07;98897.55;105864;1254;61547;-25
2024/03/12 13:43:57;;;;;;;11.80;7.20;;;;;;;3.81;74.90;98896.58;105833;1250;72973;-25
2024/03/12 13:46:24;;;;;;;9.80;5.60;;;;;;;4.07;73.48;98888.58;105798;1257;74676;-25
2024/03/12 13:49:16;;;;;;;8.70;4.70;;;;;;;3.91;73.44;98891.16;105894;1253;73839;-25
2024/03/12 13:51:45;;;;;;;6.10;4.10;;;;;;;3.58;74.53;98886.50;105689;1253;61079;-25
2024/03/12 13:54:14;;;;;;;10.20;5.10;;;;;;;3.62;75.16;98891.09;105693;1251;61173;-25
2024/03/12 13:56:41;;;;;;;9.40;5.80;;;;;;;4.10;73.27;98883.95;105642;1250;72887;-25
2024/03/12 13:59:08;;;;;;;11.40;7.50;;;;;;;4.05;72.89;98882.33;106004;1254;75724;-25
2024/03/12 14:01:36;;;;;;;7.50;5.60;;;;;;;3.82;73.20;98881.92;105926;1250;72898;-25
2024/03/12 14:04:03;;;;;;;9.30;5.90;;;;;;;3.38;74.54;98880.18;105919;1254;61054;-25
2024/03/12 14:06:32;;;;;;;8.60;5.00;;;;;;;3.58;74.88;98880.30;105816;1251;61173;-25
2024/03/12 14:09:00;;;;;;;8.80;5.60;;;;;;;4.00;73.10;98880.05;105709;1250;73095;-25
2024/03/12 14:11:27;;;;;;;4.80;3.80;;;;;;;3.95;72.81;98880.85;105891;1251;75581;-26
2024/03/12 14:13:55;;;;;;;9.60;5.60;;;;;;;3.79;73.34;98887.20;105900;1251;72568;-25
2024/03/12 14:16:21;;;;;;;9.00;6.60;;;;;;;3.53;74.33;98878.54;105948;1250;61061;-26
2024/03/12 14:18:52;;;;;;;12.50;7.30;;;;;;;3.67;74.30;98875.51;105902;1251;61113;-26
2024/03/12 14:21:19;;;;;;;10.70;6.40;;;;;;;4.03;72.73;98875.25;105842;1250;72387;-26
2024/03/12 14:23:47;;;;;;;10.30;6.60;;;;;;;3.94;72.59;98866.63;105937;1251;73727;-26
2024/03/12 14:26:16;;;;;;;10.30;6.40;;;;;;;3.85;73.04;98867.34;105893;1253;72168;-25
2024/03/12 14:28:44;;;;;;;5.90;4.50;;;;;;;3.52;74.10;98868.45;105687;1253;61051;-25